sensor_id;sensor_type;location;lat;lon;timestamp;pressure;altitude;pressure_sealevel;temperature;humidity
46598;BME280;32318;48.858;8.252;2023-06-01T00:07:43;100394.22;;;16.75;46.88
46598;BME280;32318;48.858;8.252;2023-06-01T00:15:44;100397.91;;;16.61;48.28
46598;BME280;32318;48.858;8.252;2023-06-01T00:23:44;100394.69;;;16.44;49.14
46598;BME280;32318;48.858;8.252;2023-06-01T00:31:46;100393.78;;;16.30;50.45
46598;BME280;32318;48.858;8.252;2023-06-01T00:39:46;100388.16;;;16.25;48.49
46598;BME280;32318;48.858;8.252;2023-06-01T00:47:46;100378.63;;;16.22;49.28
46598;BME280;32318;48.858;8.252;2023-06-01T00:55:47;100385.00;;;16.14;48.93
46598;BME280;32318;48.858;8.252;2023-06-01T01:03:48;100379.53;;;16.01;49.65
46598;BME280;32318;48.858;8.252;2023-06-01T01:12:09;100374.59;;;15.83;52.93
46598;BME280;32318;48.858;8.252;2023-06-01T01:20:24;100376.59;;;15.74;51.04
46598;BME280;32318;48.858;8.252;2023-06-01T01:28:33;100371.31;;;15.59;53.28
46598;BME280;32318;48.858;8.252;2023-06-01T01:36:36;100364.59;;;15.48;51.27
46598;BME280;32318;48.858;8.252;2023-06-01T01:44:36;100366.09;;;15.29;51.82
46598;BME280;32318;48.858;8.252;2023-06-01T01:52:38;100367.56;;;15.32;51.85
46598;BME280;32318;48.858;8.252;2023-06-01T02:00:40;100370.50;;;15.15;52.69
46598;BME280;32318;48.858;8.252;2023-06-01T02:08:41;100364.13;;;15.01;52.26
46598;BME280;32318;48.858;8.252;2023-06-01T02:16:42;100357.41;;;14.90;52.75
46598;BME280;32318;48.858;8.252;2023-06-01T02:24:44;100360.91;;;14.91;52.55
46598;BME280;32318;48.858;8.252;2023-06-01T02:32:45;100351.03;;;14.77;53.06
46598;BME280;32318;48.858;8.252;2023-06-01T02:40:48;100357.44;;;14.76;53.01
46598;BME280;32318;48.858;8.252;2023-06-01T02:48:48;100354.59;;;14.47;54.31
46598;BME280;32318;48.858;8.252;2023-06-01T02:56:49;100357.63;;;14.44;55.22
46598;BME280;32318;48.858;8.252;2023-06-01T03:04:49;100367.56;;;14.43;54.88
46598;BME280;32318;48.858;8.252;2023-06-01T03:12:49;100358.91;;;14.48;55.14
46598;BME280;32318;48.858;8.252;2023-06-01T03:20:49;100357.78;;;14.57;55.09
46598;BME280;32318;48.858;8.252;2023-06-01T03:28:50;100357.63;;;14.59;54.93
46598;BME280;32318;48.858;8.252;2023-06-01T03:36:50;100361.91;;;14.53;55.15
46598;BME280;32318;48.858;8.252;2023-06-01T03:44:50;100371.34;;;14.49;55.40
46598;BME280;32318;48.858;8.252;2023-06-01T03:52:51;100376.44;;;14.44;55.35
46598;BME280;32318;48.858;8.252;2023-06-01T04:00:51;100375.03;;;14.48;53.96
46598;BME280;32318;48.858;8.252;2023-06-01T04:08:52;100382.75;;;14.21;55.42
46598;BME280;32318;48.858;8.252;2023-06-01T04:16:55;100385.13;;;14.01;55.96
46598;BME280;32318;48.858;8.252;2023-06-01T04:24:56;100387.25;;;14.06;56.31
46598;BME280;32318;48.858;8.252;2023-06-01T04:32:56;100398.94;;;14.13;57.22
46598;BME280;32318;48.858;8.252;2023-06-01T04:40:57;100401.72;;;14.35;56.85
46598;BME280;32318;48.858;8.252;2023-06-01T04:48:57;100404.97;;;14.60;56.92
46598;BME280;32318;48.858;8.252;2023-06-01T04:56:59;100406.06;;;14.66;58.21
46598;BME280;32318;48.858;8.252;2023-06-01T05:05:00;100404.97;;;14.75;59.29
46598;BME280;32318;48.858;8.252;2023-06-01T05:13:00;100406.16;;;14.87;59.74
46598;BME280;32318;48.858;8.252;2023-06-01T05:21:01;100414.75;;;15.13;60.18
46598;BME280;32318;48.858;8.252;2023-06-01T05:29:01;100429.13;;;15.63;59.38
46598;BME280;32318;48.858;8.252;2023-06-01T05:37:02;100419.41;;;16.12;58.39
46598;BME280;32318;48.858;8.252;2023-06-01T05:45:03;100431.16;;;16.75;56.86
46598;BME280;32318;48.858;8.252;2023-06-01T05:53:03;100426.56;;;17.17;55.50
46598;BME280;32318;48.858;8.252;2023-06-01T06:01:03;100420.00;;;17.60;54.35
46598;BME280;32318;48.858;8.252;2023-06-01T06:09:04;100411.09;;;18.00;52.94
46598;BME280;32318;48.858;8.252;2023-06-01T06:17:05;100405.25;;;18.37;51.38
46598;BME280;32318;48.858;8.252;2023-06-01T06:25:05;100411.38;;;18.71;49.61
46598;BME280;32318;48.858;8.252;2023-06-01T06:33:06;100407.13;;;18.88;49.22
46598;BME280;32318;48.858;8.252;2023-06-01T06:41:06;100406.66;;;19.05;49.08
46598;BME280;32318;48.858;8.252;2023-06-01T06:49:07;100408.56;;;19.36;48.19
46598;BME280;32318;48.858;8.252;2023-06-01T06:57:07;100407.31;;;19.39;48.36
46598;BME280;32318;48.858;8.252;2023-06-01T07:05:08;100423.91;;;19.74;47.65
46598;BME280;32318;48.858;8.252;2023-06-01T07:13:10;100429.28;;;19.88;47.39
46598;BME280;32318;48.858;8.252;2023-06-01T07:21:11;100412.44;;;20.04;47.69
46598;BME280;32318;48.858;8.252;2023-06-01T07:29:11;100422.78;;;20.33;47.33
46598;BME280;32318;48.858;8.252;2023-06-01T07:37:15;100424.31;;;20.66;46.07
46598;BME280;32318;48.858;8.252;2023-06-01T07:45:16;100417.78;;;20.74;45.55
46598;BME280;32318;48.858;8.252;2023-06-01T07:53:17;100417.94;;;21.09;45.02
46598;BME280;32318;48.858;8.252;2023-06-01T08:01:18;100415.44;;;21.26;44.94
46598;BME280;32318;48.858;8.252;2023-06-01T08:09:22;100416.69;;;21.54;44.74
46598;BME280;32318;48.858;8.252;2023-06-01T08:17:25;100400.22;;;21.80;44.34
46598;BME280;32318;48.858;8.252;2023-06-01T08:25:26;100403.53;;;22.05;43.19
46598;BME280;32318;48.858;8.252;2023-06-01T08:33:27;100397.50;;;22.27;43.80
46598;BME280;32318;48.858;8.252;2023-06-01T08:41:36;100382.47;;;22.36;42.41
46598;BME280;32318;48.858;8.252;2023-06-01T08:49:41;100388.50;;;22.50;42.74
46598;BME280;32318;48.858;8.252;2023-06-01T08:57:42;100385.69;;;22.86;41.70
46598;BME280;32318;48.858;8.252;2023-06-01T09:05:42;100383.88;;;22.92;41.72
46598;BME280;32318;48.858;8.252;2023-06-01T09:13:43;100387.81;;;23.13;40.96
46598;BME280;32318;48.858;8.252;2023-06-01T09:22:04;100377.16;;;23.23;41.08
46598;BME280;32318;48.858;8.252;2023-06-01T09:30:04;100374.28;;;23.47;41.28
46598;BME280;32318;48.858;8.252;2023-06-01T09:38:05;100379.22;;;23.50;40.59
46598;BME280;32318;48.858;8.252;2023-06-01T09:46:08;100366.09;;;23.81;40.31
46598;BME280;32318;48.858;8.252;2023-06-01T09:54:08;100351.06;;;23.95;39.75
46598;BME280;32318;48.858;8.252;2023-06-01T10:02:16;100352.59;;;24.08;39.97
46598;BME280;32318;48.858;8.252;2023-06-01T10:10:17;100354.84;;;24.34;39.34
46598;BME280;32318;48.858;8.252;2023-06-01T10:18:17;100333.78;;;24.51;38.94
46598;BME280;32318;48.858;8.252;2023-06-01T10:26:18;100328.66;;;24.82;38.12
46598;BME280;32318;48.858;8.252;2023-06-01T10:34:41;100318.47;;;25.00;37.81
46598;BME280;32318;48.858;8.252;2023-06-01T10:42:42;100311.09;;;25.33;36.23
46598;BME280;32318;48.858;8.252;2023-06-01T10:51:19;100307.56;;;25.65;35.89
46598;BME280;32318;48.858;8.252;2023-06-01T10:59:19;100307.94;;;25.84;35.16
46598;BME280;32318;48.858;8.252;2023-06-01T11:07:35;100298.94;;;25.94;34.48
46598;BME280;32318;48.858;8.252;2023-06-01T11:15:37;100298.84;;;26.21;34.77
46598;BME280;32318;48.858;8.252;2023-06-01T11:23:41;100289.34;;;26.50;31.55
46598;BME280;32318;48.858;8.252;2023-06-01T11:31:47;100281.41;;;26.43;30.91
46598;BME280;32318;48.858;8.252;2023-06-01T11:39:48;100275.94;;;26.58;31.31
46598;BME280;32318;48.858;8.252;2023-06-01T11:47:48;100268.91;;;26.78;31.52
46598;BME280;32318;48.858;8.252;2023-06-01T11:55:54;100263.97;;;26.85;29.21
46598;BME280;32318;48.858;8.252;2023-06-01T12:03:54;100256.31;;;26.98;28.52
46598;BME280;32318;48.858;8.252;2023-06-01T12:11:57;100248.09;;;27.03;28.08
46598;BME280;32318;48.858;8.252;2023-06-01T12:19:58;100240.97;;;27.17;26.87
46598;BME280;32318;48.858;8.252;2023-06-01T12:28:06;100228.88;;;27.18;26.24
46598;BME280;32318;48.858;8.252;2023-06-01T12:36:07;100222.59;;;26.97;26.96
46598;BME280;32318;48.858;8.252;2023-06-01T12:44:08;100215.44;;;27.32;27.36
46598;BME280;32318;48.858;8.252;2023-06-01T12:52:09;100215.47;;;27.48;27.01
46598;BME280;32318;48.858;8.252;2023-06-01T13:00:10;100215.13;;;27.65;26.32
46598;BME280;32318;48.858;8.252;2023-06-01T13:08:12;100204.94;;;27.76;25.34
46598;BME280;32318;48.858;8.252;2023-06-01T13:16:13;100197.25;;;27.83;25.97
46598;BME280;32318;48.858;8.252;2023-06-01T13:24:14;100187.28;;;27.97;26.38
46598;BME280;32318;48.858;8.252;2023-06-01T13:32:14;100185.94;;;27.95;26.43
46598;BME280;32318;48.858;8.252;2023-06-01T13:40:14;100181.03;;;27.81;26.74
46598;BME280;32318;48.858;8.252;2023-06-01T13:48:18;100167.88;;;27.83;27.04
46598;BME280;32318;48.858;8.252;2023-06-01T13:56:18;100162.56;;;28.08;27.07
46598;BME280;32318;48.858;8.252;2023-06-01T14:04:21;100162.81;;;28.11;25.62
46598;BME280;32318;48.858;8.252;2023-06-01T14:12:21;100154.78;;;28.20;26.93
46598;BME280;32318;48.858;8.252;2023-06-01T14:20:22;100149.78;;;28.27;27.50
46598;BME280;32318;48.858;8.252;2023-06-01T14:28:22;100141.66;;;28.12;27.61
46598;BME280;32318;48.858;8.252;2023-06-01T14:36:22;100134.44;;;28.26;28.37
46598;BME280;32318;48.858;8.252;2023-06-01T14:44:24;100125.78;;;28.09;27.46
46598;BME280;32318;48.858;8.252;2023-06-01T14:52:24;100116.97;;;28.12;27.41
46598;BME280;32318;48.858;8.252;2023-06-01T15:00:25;100110.63;;;28.16;26.72
46598;BME280;32318;48.858;8.252;2023-06-01T15:08:25;100107.69;;;28.08;27.29
46598;BME280;32318;48.858;8.252;2023-06-01T15:16:27;100104.41;;;27.95;27.31
46598;BME280;32318;48.858;8.252;2023-06-01T15:24:28;100096.72;;;27.97;27.39
46598;BME280;32318;48.858;8.252;2023-06-01T15:32:28;100083.25;;;28.01;26.49
46598;BME280;32318;48.858;8.252;2023-06-01T15:40:28;100090.09;;;28.03;26.25
46598;BME280;32318;48.858;8.252;2023-06-01T15:48:28;100081.72;;;27.84;26.95
46598;BME280;32318;48.858;8.252;2023-06-01T15:56:29;100081.47;;;27.76;26.25
46598;BME280;32318;48.858;8.252;2023-06-01T16:04:29;100077.72;;;27.61;26.55
46598;BME280;32318;48.858;8.252;2023-06-01T16:12:30;100069.06;;;27.33;26.84
46598;BME280;32318;48.858;8.252;2023-06-01T16:20:30;100067.41;;;27.32;27.03
46598;BME280;32318;48.858;8.252;2023-06-01T16:28:30;100049.59;;;27.35;26.75
46598;BME280;32318;48.858;8.252;2023-06-01T16:36:31;100047.72;;;27.30;26.17
46598;BME280;32318;48.858;8.252;2023-06-01T16:44:31;100036.75;;;27.25;27.13
46598;BME280;32318;48.858;8.252;2023-06-01T16:52:31;100032.94;;;27.16;27.51
46598;BME280;32318;48.858;8.252;2023-06-01T17:00:32;100030.78;;;27.07;27.28
46598;BME280;32318;48.858;8.252;2023-06-01T17:08:32;100017.16;;;26.92;27.17
46598;BME280;32318;48.858;8.252;2023-06-01T17:16:33;100019.91;;;26.87;27.02
46598;BME280;32318;48.858;8.252;2023-06-01T17:24:33;100024.28;;;26.72;28.38
46598;BME280;32318;48.858;8.252;2023-06-01T17:32:34;100016.09;;;26.67;29.11
46598;BME280;32318;48.858;8.252;2023-06-01T17:40:34;100018.88;;;26.46;29.19
46598;BME280;32318;48.858;8.252;2023-06-01T17:48:35;100019.72;;;26.21;29.96
46598;BME280;32318;48.858;8.252;2023-06-01T17:56:35;100013.69;;;26.04;30.80
46598;BME280;32318;48.858;8.252;2023-06-01T18:04:35;100016.38;;;25.83;31.48
46598;BME280;32318;48.858;8.252;2023-06-01T18:12:36;100014.44;;;25.68;31.86
46598;BME280;32318;48.858;8.252;2023-06-01T18:20:36;100011.69;;;25.52;32.16
46598;BME280;32318;48.858;8.252;2023-06-01T18:28:37;100011.13;;;25.40;32.69
46598;BME280;32318;48.858;8.252;2023-06-01T18:36:37;100011.84;;;25.25;33.24
46598;BME280;32318;48.858;8.252;2023-06-01T18:44:38;100015.34;;;25.15;33.70
46598;BME280;32318;48.858;8.252;2023-06-01T18:52:38;100021.31;;;24.97;33.79
46598;BME280;32318;48.858;8.252;2023-06-01T19:00:39;100021.97;;;24.71;34.18
46598;BME280;32318;48.858;8.252;2023-06-01T19:08:43;100029.19;;;24.50;34.49
46598;BME280;32318;48.858;8.252;2023-06-01T19:16:43;100023.56;;;24.30;35.15
46598;BME280;32318;48.858;8.252;2023-06-01T19:24:43;100036.59;;;24.17;35.91
46598;BME280;32318;48.858;8.252;2023-06-01T19:32:45;100037.97;;;23.92;36.63
46598;BME280;32318;48.858;8.252;2023-06-01T19:40:46;100055.94;;;23.66;37.17
46598;BME280;32318;48.858;8.252;2023-06-01T19:48:49;100068.22;;;23.19;37.99
46598;BME280;32318;48.858;8.252;2023-06-01T19:56:50;100069.59;;;22.65;38.55
46598;BME280;32318;48.858;8.252;2023-06-01T20:04:53;100077.19;;;22.63;38.79
46598;BME280;32318;48.858;8.252;2023-06-01T20:12:54;100085.53;;;22.56;39.48
46598;BME280;32318;48.858;8.252;2023-06-01T20:20:55;100087.34;;;22.51;40.75
46598;BME280;32318;48.858;8.252;2023-06-01T20:28:55;100096.63;;;22.38;41.50
46598;BME280;32318;48.858;8.252;2023-06-01T20:36:56;100099.50;;;22.31;41.93
46598;BME280;32318;48.858;8.252;2023-06-01T20:44:59;100106.97;;;22.24;41.63
46598;BME280;32318;48.858;8.252;2023-06-01T20:53:00;100101.28;;;22.08;41.26
46598;BME280;32318;48.858;8.252;2023-06-01T21:01:00;100102.63;;;21.94;40.59
46598;BME280;32318;48.858;8.252;2023-06-01T21:09:01;100116.38;;;21.87;39.93
46598;BME280;32318;48.858;8.252;2023-06-01T21:17:01;100124.25;;;21.72;39.36
46598;BME280;32318;48.858;8.252;2023-06-01T21:25:02;100133.09;;;21.55;39.65
46598;BME280;32318;48.858;8.252;2023-06-01T21:33:03;100142.34;;;21.30;40.06
46598;BME280;32318;48.858;8.252;2023-06-01T21:41:03;100149.09;;;21.16;40.38
46598;BME280;32318;48.858;8.252;2023-06-01T21:49:04;100147.56;;;20.96;40.88
46598;BME280;32318;48.858;8.252;2023-06-01T21:57:04;100153.91;;;20.78;41.10
46598;BME280;32318;48.858;8.252;2023-06-01T22:05:06;100158.34;;;20.61;41.38
46598;BME280;32318;48.858;8.252;2023-06-01T22:13:06;100149.81;;;20.45;41.58
46598;BME280;32318;48.858;8.252;2023-06-01T22:21:07;100166.97;;;20.27;42.12
46598;BME280;32318;48.858;8.252;2023-06-01T22:29:07;100159.59;;;20.16;42.19
46598;BME280;32318;48.858;8.252;2023-06-01T22:37:07;100162.91;;;20.18;42.37
46598;BME280;32318;48.858;8.252;2023-06-01T22:45:08;100162.75;;;20.01;43.15
46598;BME280;32318;48.858;8.252;2023-06-01T22:53:09;100175.69;;;19.99;43.10
46598;BME280;32318;48.858;8.252;2023-06-01T23:01:09;100180.03;;;19.81;43.67
46598;BME280;32318;48.858;8.252;2023-06-01T23:09:11;100181.28;;;19.85;43.71
46598;BME280;32318;48.858;8.252;2023-06-01T23:17:16;100183.44;;;19.77;43.41
46598;BME280;32318;48.858;8.252;2023-06-01T23:25:23;100186.97;;;19.58;43.71
46598;BME280;32318;48.858;8.252;2023-06-01T23:33:23;100186.44;;;19.50;43.85
46598;BME280;32318;48.858;8.252;2023-06-01T23:41:23;100183.25;;;19.34;44.52
46598;BME280;32318;48.858;8.252;2023-06-01T23:49:24;100185.28;;;19.20;44.60
46598;BME280;32318;48.858;8.252;2023-06-01T23:57:24;100192.00;;;19.11;44.54
